Thunder radar more information blitzortung!


Radar de pluja more information rain snow radar


Visita la nostra xarxa de llocs de meteo:

Template documentation
and downloads

And another site



No particular awareness of the weather is required.    There are no Weather-warnings

Pagina Historial Weather Underground text

Diari Resum Juliol 2, 2017 Unitats:  Imperial    Mètric   Tant
« Previous Dia
SegĂźent Dia »
Diari Setmana Mensual Anual Personalitzada
  Maxima: Minima: Media:
Temperatura: TemperatureC °F 16.9 °F 25.2 °F
Punt de rosada: DewpointC °F 5.9 °F 9 °F
Humitat: Humidity % 25 % 37 %
Wind Speed: WindSpeedKMH mph 0.0 mph 6.8 mph
RĂ fegues de vent: WindSpeedGustKMH mph - -
Vent:- - South
Pression baro: PressurehPa in 1017.8 in -
Precipitacions: 0.0 in    
Historical Graphs
 
 
Dades de taula per Juliol 2, 2017
Temps Temperatura Punt de rosada Pression baro Vent Wind Speed RĂ fegues de vent Humitat Rainfall Rate (Hourly)
TemperatureC °F DewpointC °F PressurehPa in Calm     Humidity % HourlyPrecipMM in
00:03 19.0 °F 8.1 °F 1019.9 in Calm     49 % 0.0 in
00:08 18.9 °F 8.2 °F 1019.9 in WNW 2.3 mph   50 % 0.0 in
00:13 18.8 °F 8.2 °F 1020.9 in Calm     50 % 0.0 in
05:25 20.5 °F 9.1 °F 1021.9 in NE 4.8 mph 6.4 mph 48 % 0.0 in
05:35 21.6 °F 9.8 °F 1021.9 in NE 3.2 mph 6.4 mph 47 % 0.0 in
10:42 21.7 °F 9.9 °F 1021.9 in NNE 5.6 mph 5.6 mph 47 % 0.0 in
10:47 21.6 °F 9.8 °F 1020.9 in East 7.4 mph 7.4 mph 47 % 0.0 in
10:52 21.7 °F 9.6 °F 1020.9 in NE 9.3 mph 9.3 mph 46 % 0.0 in
10:57 21.9 °F 9.8 °F 1020.9 in NW 9.3 mph 9.3 mph 46 % 0.0 in
11:02 22.0 °F 9.5 °F 1020.9 in NW 7.4 mph 7.4 mph 45 % 0.0 in
11:07 22.1 °F 9.6 °F 1020.9 in ESE 6.1 mph 6.1 mph 45 % 0.0 in
11:13 22.5 °F 9.9 °F 1020.9 in North 6.1 mph 6.1 mph 45 % 0.0 in
11:17 22.9 °F 10.3 °F 1020.9 in WNW 3.7 mph 3.7 mph 45 % 0.0 in
11:22 23.0 °F 10.1 °F 1020.9 in NE 9.0 mph 9.0 mph 44 % 0.0 in
11:27 23.0 °F 10.1 °F 1020.9 in NNE 9.5 mph 9.5 mph 44 % 0.0 in
11:32 23.0 °F 10.1 °F 1020.9 in NNE 9.3 mph 9.3 mph 44 % 0.0 in
11:33 23.0 °F 10.1 °F 1020.9 in NE 9.5 mph 9.5 mph 44 % 0.0 in
11:38 23.0 °F 9.7 °F 1020.9 in NNE 9.3 mph 9.3 mph 43 % 0.0 in
11:43 23.4 °F 10.1 °F 1020.9 in NNE 11.1 mph 11.1 mph 43 % 0.0 in
11:48 23.5 °F 9.8 °F 1020.9 in ESE 7.4 mph 7.4 mph 42 % 0.0 in
11:53 23.9 °F 10.6 °F 1020.9 in ENE 7.4 mph 7.4 mph 43 % 0.0 in
11:58 24.0 °F 10.3 °F 1020.9 in WSW 4.2 mph 4.2 mph 42 % 0.0 in
12:03 24.4 °F 10.7 °F 1020.9 in NE 9.3 mph 9.3 mph 42 % 0.0 in
12:08 24.4 °F 10.7 °F 1020.9 in NE 5.0 mph 5.0 mph 42 % 0.0 in
12:13 24.4 °F 10.3 °F 1019.9 in NE 11.1 mph 11.1 mph 41 % 0.0 in
12:18 24.6 °F 10.4 °F 1019.9 in East 10.3 mph 10.3 mph 41 % 0.0 in
12:23 24.2 °F 9.7 °F 1019.9 in East 9.3 mph 9.3 mph 40 % 0.0 in
12:28 25.1 °F 10.6 °F 1019.9 in NW 7.4 mph 7.4 mph 40 % 0.0 in
12:33 26.3 °F 11.2 °F 1019.9 in ESE 5.3 mph 5.3 mph 39 % 0.0 in
12:38 26.8 °F 11.7 °F 1019.9 in SSW 3.7 mph 3.7 mph 39 % 0.0 in
12:43 27.4 °F 11.8 °F 1020.9 in South 6.1 mph 6.1 mph 38 % 0.0 in
12:48 27.3 °F 11.3 °F 1020.9 in SW 5.3 mph 5.3 mph 37 % 0.0 in
12:53 27.6 °F 11.6 °F 1020.9 in NNW 9.3 mph 9.3 mph 37 % 0.0 in
12:58 27.3 °F 10.9 °F 1019.9 in SW 7.4 mph 7.4 mph 36 % 0.0 in
13:03 27.5 °F 10.7 °F 1019.9 in SW 9.3 mph 9.3 mph 35 % 0.0 in
13:08 27.5 °F 10.7 °F 1019.9 in WNW 6.9 mph 6.9 mph 35 % 0.0 in
13:13 27.5 °F 10.2 °F 1019.9 in SW 5.3 mph 5.3 mph 34 % 0.0 in
13:18 27.7 °F 9.9 °F 1019.9 in West 11.1 mph 11.1 mph 33 % 0.0 in
13:23 27.7 °F 9.5 °F 1019.9 in SSW 9.3 mph 9.3 mph 32 % 0.0 in
13:28 28.0 °F 9.3 °F 1019.9 in SSW 7.4 mph 7.4 mph 31 % 0.0 in
13:33 28.0 °F 9.3 °F 1019.9 in ENE 7.4 mph 7.4 mph 31 % 0.0 in
13:38 28.1 °F 8.9 °F 1019.9 in West 9.3 mph 9.3 mph 30 % 0.0 in
13:43 28.6 °F 9.3 °F 1019.9 in West 8.7 mph 8.7 mph 30 % 0.0 in
13:48 28.6 °F 9.3 °F 1019.9 in WSW 7.4 mph 7.4 mph 30 % 0.0 in
13:53 28.3 °F 8.6 °F 1019.9 in ESE 7.4 mph 7.4 mph 29 % 0.0 in
13:58 28.5 °F 9.2 °F 1019.9 in NE 6.4 mph 6.4 mph 30 % 0.0 in
14:03 28.9 °F 9.1 °F 1019.9 in West 5.6 mph 5.6 mph 29 % 0.0 in
14:08 28.6 °F 8.8 °F 1019.9 in West 7.4 mph 7.4 mph 29 % 0.0 in
14:13 29.1 °F 8.7 °F 1019.9 in WSW 9.3 mph 9.3 mph 28 % 0.0 in
14:18 29.2 °F 8.8 °F 1019.9 in SW 7.4 mph 7.4 mph 28 % 0.0 in
14:23 29.5 °F 9.1 °F 1019.9 in SSW 5.6 mph 5.6 mph 28 % 0.0 in
14:28 29.8 °F 8.8 °F 1018.8 in West 5.6 mph 5.6 mph 27 % 0.0 in
14:33 29.3 °F 8.4 °F 1018.8 in South 3.7 mph 3.7 mph 27 % 0.0 in
14:38 29.4 °F 8.4 °F 1018.8 in ENE 7.4 mph 7.4 mph 27 % 0.0 in
14:43 29.6 °F 8.6 °F 1019.9 in SW 9.0 mph 9.0 mph 27 % 0.0 in
14:48 29.9 °F 8.9 °F 1019.9 in SSW 9.3 mph 9.3 mph 27 % 0.0 in
14:53 28.8 °F 8.4 °F 1019.9 in WSW 5.3 mph 5.3 mph 28 % 0.0 in
14:58 29.2 °F 8.3 °F 1019.9 in South 5.6 mph 5.6 mph 27 % 0.0 in
15:01 29.8 °F 8.8 °F 1019.9 in WSW 6.1 mph 6.1 mph 27 % 0.0 in
15:06 29.1 °F 8.2 °F 1019.9 in SW 7.4 mph 7.4 mph 27 % 0.0 in
15:11 29.6 °F 8.6 °F 1019.9 in WSW 5.6 mph 5.6 mph 27 % 0.0 in
15:16 30.4 °F 9.3 °F 1019.9 in WNW 9.3 mph 9.3 mph 27 % 0.0 in
15:21 30.7 °F 9.0 °F 1019.9 in SW 6.4 mph 6.4 mph 26 % 0.0 in
15:26 30.1 °F 8.5 °F 1018.8 in ENE 9.3 mph 9.3 mph 26 % 0.0 in
15:31 30.5 °F 8.8 °F 1018.8 in SSE 7.4 mph 7.4 mph 26 % 0.0 in
15:36 29.8 °F 8.2 °F 1018.8 in South 5.6 mph 5.6 mph 26 % 0.0 in
15:41 30.4 °F 9.3 °F 1018.8 in West 11.1 mph 11.1 mph 27 % 0.0 in
15:46 30.7 °F 9.0 °F 1018.8 in SW 5.6 mph 5.6 mph 26 % 0.0 in
15:51 30.7 °F 9.0 °F 1018.8 in North 3.7 mph 3.7 mph 26 % 0.0 in
15:56 31.0 °F 8.7 °F 1018.8 in North 7.4 mph 7.4 mph 25 % 0.0 in
16:01 31.2 °F 9.4 °F 1018.8 in WSW 9.3 mph 9.3 mph 26 % 0.0 in
16:06 31.3 °F 9.5 °F 1018.8 in West 7.4 mph 7.4 mph 26 % 0.0 in
16:11 31.1 °F 8.7 °F 1018.8 in WSW 9.3 mph 9.3 mph 25 % 0.0 in
16:16 31.4 °F 9.6 °F 1018.8 in West 14.8 mph 14.8 mph 26 % 0.0 in
16:21 31.5 °F 9.7 °F 1018.8 in West 7.9 mph 7.9 mph 26 % 0.0 in
16:26 31.7 °F 9.8 °F 1018.8 in SW 9.3 mph 9.3 mph 26 % 0.0 in
16:31 30.6 °F 8.9 °F 1018.8 in SW 6.1 mph 6.1 mph 26 % 0.0 in
16:36 31.0 °F 9.2 °F 1018.8 in SW 5.6 mph 5.6 mph 26 % 0.0 in
16:41 30.5 °F 8.8 °F 1017.8 in SW 13.0 mph 13.0 mph 26 % 0.0 in
16:42 30.5 °F 8.8 °F 1017.8 in SSW 16.9 mph 16.9 mph 26 % 0.0 in
16:47 30.5 °F 8.8 °F 1017.8 in SSW 7.4 mph 7.4 mph 26 % 0.0 in
16:52 30.5 °F 8.8 °F 1017.8 in SW 7.4 mph 7.4 mph 26 % 0.0 in
16:57 31.0 °F 9.2 °F 1017.8 in West 14.8 mph 14.8 mph 26 % 0.0 in
17:02 31.0 °F 9.2 °F 1017.8 in South 11.1 mph 11.1 mph 26 % 0.0 in
17:07 31.3 °F 9.5 °F 1017.8 in South 9.3 mph 9.3 mph 26 % 0.0 in
17:12 30.9 °F 9.2 °F 1017.8 in South 13.0 mph 13.0 mph 26 % 0.0 in
17:17 30.4 °F 8.7 °F 1017.8 in SW 16.7 mph 16.7 mph 26 % 0.0 in
17:22 30.7 °F 9.0 °F 1017.8 in SW 9.3 mph 9.3 mph 26 % 0.0 in
17:27 30.0 °F 8.4 °F 1017.8 in SW 14.8 mph 14.8 mph 26 % 0.0 in
17:32 30.3 °F 8.7 °F 1017.8 in SW 13.0 mph 13.0 mph 26 % 0.0 in
17:37 30.0 °F 8.4 °F 1017.8 in SW 13.0 mph 13.0 mph 26 % 0.0 in
17:42 30.0 °F 8.4 °F 1017.8 in SSW 13.0 mph 13.0 mph 26 % 0.0 in
17:47 30.0 °F 8.4 °F 1017.8 in WSW 22.2 mph 22.2 mph 26 % 0.0 in
17:48 29.9 °F 8.3 °F 1017.8 in SW 14.8 mph 14.8 mph 26 % 0.0 in
17:53 29.6 °F 8.1 °F 1017.8 in South 20.4 mph 20.4 mph 26 % 0.0 in
17:58 29.3 °F 7.8 °F 1017.8 in SSW 20.4 mph 20.4 mph 26 % 0.0 in
18:03 29.2 °F 7.7 °F 1017.8 in SW 14.8 mph 14.8 mph 26 % 0.0 in
18:08 29.3 °F 7.8 °F 1017.8 in SW 14.8 mph 14.8 mph 26 % 0.0 in
18:13 29.3 °F 7.8 °F 1017.8 in SSW 9.3 mph 9.3 mph 26 % 0.0 in
18:18 29.2 °F 8.3 °F 1017.8 in SSW 9.3 mph 9.3 mph 27 % 0.0 in
18:23 29.2 °F 8.3 °F 1017.8 in SW 16.7 mph 16.7 mph 27 % 0.0 in
18:28 28.6 °F 7.8 °F 1017.8 in SSW 20.4 mph 20.4 mph 27 % 0.0 in
18:33 28.4 °F 8.1 °F 1017.8 in SW 14.8 mph 14.8 mph 28 % 0.0 in
18:38 28.2 °F 7.9 °F 1017.8 in SSE 14.8 mph 14.8 mph 28 % 0.0 in
18:43 28.0 °F 7.8 °F 1017.8 in SSW 16.7 mph 16.7 mph 28 % 0.0 in
18:48 28.1 °F 7.9 °F 1017.8 in South 9.3 mph 9.3 mph 28 % 0.0 in
18:53 28.0 °F 7.8 °F 1017.8 in SW 9.3 mph 10.3 mph 28 % 0.0 in
18:58 28.0 °F 7.8 °F 1018.8 in SSW 8.7 mph 8.7 mph 28 % 0.0 in
19:03 27.7 °F 7.6 °F 1018.8 in SSW 9.3 mph 9.3 mph 28 % 0.0 in
19:08 27.7 °F 7.6 °F 1018.8 in West 3.7 mph 3.7 mph 28 % 0.0 in
19:10 20.5 °F 11.2 °F 1021.9 in NE 3.2 mph 3.2 mph 55 % 0.0 in
19:13 27.4 °F 7.3 °F 1018.8 in SSW 7.4 mph 7.4 mph 28 % 0.0 in
19:18 27.8 °F 7.6 °F 1018.8 in SW 7.4 mph 7.4 mph 28 % 0.0 in
19:20 20.4 °F 11.1 °F 1020.9 in NE 1.6 mph 4.8 mph 55 % 0.0 in
19:23 27.6 °F 7.4 °F 1018.8 in South 5.6 mph 5.6 mph 28 % 0.0 in
19:28 27.5 °F 7.3 °F 1018.8 in SSW 11.4 mph 11.4 mph 28 % 0.0 in
19:30 20.3 °F 11.2 °F 1021.9 in NE 1.6 mph 3.2 mph 56 % 0.0 in
19:33 27.2 °F 7.1 °F 1018.8 in SW 5.6 mph 5.6 mph 28 % 0.0 in
19:38 27.3 °F 7.2 °F 1018.8 in SW 6.4 mph 6.4 mph 28 % 0.0 in
19:40 20.3 °F 11.2 °F 1021.9 in NE 1.6 mph 3.2 mph 56 % 0.0 in
19:43 27.2 °F 7.1 °F 1018.8 in SSE 7.4 mph 7.4 mph 28 % 0.0 in
19:48 27.0 °F 6.9 °F 1018.8 in SW 9.3 mph 9.3 mph 28 % 0.0 in
19:50 20.2 °F 11.1 °F 1020.9 in NE 1.6 mph 4.8 mph 56 % 0.0 in
19:53 26.8 °F 6.8 °F 1018.8 in West 7.4 mph 7.4 mph 28 % 0.0 in
19:58 26.8 °F 6.8 °F 1018.8 in West 3.9 mph 3.9 mph 28 % 0.0 in
20:00 20.0 °F 11.2 °F 1020.9 in NNE 1.6 mph 3.2 mph 57 % 0.0 in
20:03 26.6 °F 6.6 °F 1018.8 in SSW 9.3 mph 9.3 mph 28 % 0.0 in
20:08 26.4 °F 6.9 °F 1018.8 in SW 9.3 mph 9.3 mph 29 % 0.0 in
20:10 19.9 °F 11.4 °F 1020.9 in NE 1.6 mph 4.8 mph 58 % 0.0 in
20:13 26.4 °F 6.9 °F 1018.8 in SSW 7.4 mph 7.4 mph 29 % 0.0 in
20:18 26.2 °F 6.8 °F 1018.8 in SSW 13.0 mph 13.0 mph 29 % 0.0 in
20:20 19.8 °F 11.6 °F 1021.9 in Calm   3.2 mph 59 % 0.0 in
20:23 26.0 °F 6.6 °F 1018.8 in SW 4.7 mph 4.7 mph 29 % 0.0 in
20:28 25.8 °F 6.4 °F 1018.8 in WSW 5.8 mph 5.8 mph 29 % 0.0 in
20:30 19.8 °F 11.6 °F 1021.9 in ENE 3.2 mph 3.2 mph 59 % 0.0 in
20:33 25.7 °F 6.3 °F 1018.8 in South 9.3 mph 9.3 mph 29 % 0.0 in
20:38 25.4 °F 6.1 °F 1018.8 in SSW 7.4 mph 7.4 mph 29 % 0.0 in
20:40 19.7 °F 11.4 °F 1021.9 in ENE 1.6 mph 3.2 mph 59 % 0.0 in
20:43 25.3 °F 6.0 °F 1018.8 in SW 4.2 mph 4.2 mph 29 % 0.0 in
20:48 25.2 °F 5.9 °F 1018.8 in SW 7.4 mph 7.4 mph 29 % 0.0 in
20:53 25.0 °F 6.2 °F 1018.8 in WSW 5.6 mph 5.6 mph 30 % 0.0 in
20:58 24.8 °F 6.5 °F 1019.9 in SW 6.1 mph 6.1 mph 31 % 0.0 in
21:00 19.5 °F 11.3 °F 1020.9 in NE 1.6 mph 3.2 mph 59 % 0.0 in
21:03 24.6 °F 6.3 °F 1019.9 in WSW 7.4 mph 7.4 mph 31 % 0.0 in
21:08 24.4 °F 6.2 °F 1019.9 in SW 7.4 mph 7.4 mph 31 % 0.0 in
21:10 19.4 °F 11.4 °F 1020.9 in NE 1.6 mph 3.2 mph 60 % 0.0 in
21:13 24.2 °F 6.4 °F 1019.9 in SW 7.4 mph 7.4 mph 32 % 0.0 in
21:18 24.1 °F 6.4 °F 1019.9 in WSW 5.6 mph 5.6 mph 32 % 0.0 in
21:23 23.9 °F 6.2 °F 1019.9 in SSW 4.2 mph 4.2 mph 32 % 0.0 in
21:28 23.8 °F 6.6 °F 1019.9 in West 7.4 mph 7.4 mph 33 % 0.0 in
21:30 19.0 °F 11.1 °F 1020.9 in Calm     60 % 0.0 in
21:33 23.6 °F 6.4 °F 1019.9 in West 5.6 mph 5.6 mph 33 % 0.0 in
21:38 23.4 °F 6.2 °F 1019.9 in SW 3.9 mph 3.9 mph 33 % 0.0 in
21:40 18.7 °F 11.3 °F 1020.9 in Calm   3.2 mph 62 % 0.0 in
21:43 23.2 °F 6.4 °F 1019.9 in SW 3.7 mph 3.7 mph 34 % 0.0 in
21:48 23.1 °F 6.4 °F 1019.9 in WSW 3.7 mph 3.7 mph 34 % 0.0 in
21:50 18.6 °F 11.4 °F 1020.9 in Calm     63 % 0.0 in
21:53 22.9 °F 7.1 °F 1019.9 in SW 2.6 mph   36 % 0.0 in
21:58 22.7 °F 7.3 °F 1019.9 in SW 3.7 mph 3.7 mph 37 % 0.0 in
22:00 18.4 °F 11.2 °F 1020.9 in Calm     63 % 0.0 in
22:03 22.6 °F 7.2 °F 1019.9 in Calm     37 % 0.0 in
22:08 22.4 °F 7.4 °F 1019.9 in SSE 1.9 mph 1.9 mph 38 % 0.0 in
22:10 18.1 °F 10.9 °F 1020.9 in Calm   3.2 mph 63 % 0.0 in
22:13 22.3 °F 7.3 °F 1019.9 in Calm     38 % 0.0 in
22:18 22.3 °F 7.3 °F 1019.9 in WNW 1.9 mph   38 % 0.0 in
22:20 17.9 °F 11.0 °F 1020.9 in Calm     64 % 0.0 in
22:23 22.3 °F 7.7 °F 1019.9 in NE 7.4 mph 7.4 mph 39 % 0.0 in
22:28 22.3 °F 8.4 °F 1020.9 in NNE 5.6 mph 5.6 mph 41 % 0.0 in
22:30 17.9 °F 11.0 °F 1020.9 in Calm     64 % 0.0 in
22:33 22.1 °F 8.6 °F 1020.9 in North 3.7 mph 3.7 mph 42 % 0.0 in
22:38 22.0 °F 9.2 °F 1020.9 in East 5.6 mph 5.6 mph 44 % 0.0 in
22:40 17.8 °F 10.9 °F 1020.9 in Calm     64 % 0.0 in
22:43 21.8 °F 9.7 °F 1020.9 in ENE 3.7 mph 3.7 mph 46 % 0.0 in
22:48 21.7 °F 9.9 °F 1020.9 in NE 3.9 mph 3.9 mph 47 % 0.0 in
22:53 21.5 °F 10.0 °F 1020.9 in ENE 5.6 mph 5.6 mph 48 % 0.0 in
22:58 21.4 °F 9.9 °F 1020.9 in East 3.7 mph 3.7 mph 48 % 0.0 in
23:00 17.6 °F 10.7 °F 1019.9 in NE 3.2 mph 3.2 mph 64 % 0.0 in
23:03 21.3 °F 10.2 °F 1020.9 in East 3.7 mph 3.7 mph 49 % 0.0 in
23:08 21.3 °F 10.4 °F 1020.9 in ENE 3.7 mph 3.7 mph 50 % 0.0 in
23:10 17.5 °F 10.8 °F 1019.9 in Calm   3.2 mph 65 % 0.0 in
23:13 21.2 °F 10.3 °F 1020.9 in ENE 3.2 mph 3.2 mph 50 % 0.0 in
23:18 21.1 °F 10.6 °F 1020.9 in East 5.6 mph 5.6 mph 51 % 0.0 in
23:20 17.4 °F 10.7 °F 1020.9 in Calm   3.2 mph 65 % 0.0 in
23:23 21.1 °F 10.6 °F 1020.9 in ENE 3.7 mph 3.7 mph 51 % 0.0 in
23:28 20.9 °F 10.7 °F 1020.9 in NNE 3.7 mph 3.7 mph 52 % 0.0 in
23:30 17.2 °F 10.6 °F 1019.9 in Calm   1.6 mph 65 % 0.0 in
23:33 20.9 °F 10.9 °F 1020.9 in ENE 5.3 mph 5.3 mph 53 % 0.0 in
23:38 20.8 °F 10.9 °F 1020.9 in NE 3.7 mph 3.7 mph 53 % 0.0 in
23:40 17.0 °F 10.6 °F 1019.9 in Calm     66 % 0.0 in
23:43 20.7 °F 10.8 °F 1020.9 in NE 3.7 mph 3.7 mph 53 % 0.0 in
23:48 20.7 °F 10.8 °F 1020.9 in ENE 3.2 mph 3.2 mph 53 % 0.0 in
23:50 16.9 °F 10.9 °F 1020.9 in Calm   1.6 mph 68 % 0.0 in
23:53 20.6 °F 10.9 °F 1020.9 in NNE 3.7 mph 3.7 mph 54 % 0.0 in
23:58 20.6 °F 10.9 °F 1021.9 in NE 3.7 mph 3.7 mph 54 % 0.0 in
Meteo Sesrovires
Elogis d' Weather Underground - 3.5 mb

Guio original per  Jim McMurry - jmcmurry@mwt.net Adaptat per a la plantilla per  Wim van der Kuil - Leuven-Template.eu

Trobareu la nostra informacio del temps tambe a:

Weather Underground

AWEKAS